createdAt,value
2017-05-16T00:01:52.411Z,12.60
2017-05-16T00:04:20.362Z,12.60
2017-05-16T00:06:47.896Z,12.60
2017-05-16T00:09:16.241Z,12.60
2017-05-16T00:11:44.176Z,12.60
2017-05-16T00:14:11.717Z,12.60
2017-05-16T00:16:39.684Z,12.60
2017-05-16T00:19:07.623Z,12.60
2017-05-16T00:21:35.180Z,12.60
2017-05-16T00:24:02.749Z,12.60
2017-05-16T00:26:30.317Z,12.60
2017-05-16T00:28:57.861Z,12.60
2017-05-16T00:31:25.824Z,12.60
2017-05-16T00:33:53.371Z,12.60
2017-05-16T00:36:21.312Z,12.60
2017-05-16T00:38:49.271Z,12.60
2017-05-16T00:41:17.204Z,12.60
2017-05-16T00:43:44.776Z,12.70
2017-05-16T00:46:12.725Z,12.60
2017-05-16T00:48:40.695Z,12.60
2017-05-16T00:51:08.636Z,12.50
2017-05-16T00:53:36.582Z,12.40
2017-05-16T00:56:04.548Z,12.40
2017-05-16T00:58:32.487Z,12.40
2017-05-16T01:01:00.425Z,12.30
2017-05-16T01:03:28.387Z,12.20
2017-05-16T01:05:56.353Z,12.10
2017-05-16T01:08:24.302Z,12.10
2017-05-16T01:10:51.848Z,12.10
2017-05-16T01:13:19.423Z,12.10
2017-05-16T01:15:46.965Z,12.10
2017-05-16T01:18:14.503Z,12.00
2017-05-16T01:20:42.073Z,12.10
2017-05-16T01:23:09.611Z,12.10
2017-05-16T01:25:37.181Z,12.00
2017-05-16T01:28:05.139Z,11.90
2017-05-16T01:30:33.094Z,12.00
2017-05-16T01:33:01.061Z,12.00
2017-05-16T01:35:28.613Z,12.00
2017-05-16T01:37:56.151Z,12.00
2017-05-16T01:40:24.120Z,11.90
2017-05-16T01:42:51.785Z,12.00
2017-05-16T01:45:19.323Z,11.90
2017-05-16T01:47:47.267Z,11.80
2017-05-16T01:50:15.239Z,11.80
2017-05-16T01:52:43.185Z,11.80
2017-05-16T01:55:11.130Z,11.70
2017-05-16T01:57:39.518Z,11.80
2017-05-16T02:00:07.065Z,11.70
2017-05-16T02:02:34.649Z,11.70
2017-05-16T02:05:02.219Z,11.70
2017-05-16T02:07:30.311Z,11.60
2017-05-16T02:09:57.855Z,11.60
2017-05-16T02:12:25.403Z,11.60
2017-05-16T02:14:52.979Z,11.60
2017-05-16T02:17:20.523Z,11.60
2017-05-16T02:19:48.473Z,11.40
2017-05-16T02:22:16.432Z,11.40
2017-05-16T02:24:43.968Z,11.40
2017-05-16T02:27:11.516Z,11.40
2017-05-16T02:29:39.476Z,11.50
2017-05-16T02:32:07.420Z,11.40
2017-05-16T02:34:34.975Z,11.40
2017-05-16T02:37:02.537Z,11.40
2017-05-16T02:39:30.080Z,11.40
2017-05-16T02:41:58.025Z,11.40
2017-05-16T02:44:25.616Z,11.40
2017-05-16T02:46:53.552Z,11.30
2017-05-16T02:49:21.496Z,11.30
2017-05-16T02:51:49.456Z,11.40
2017-05-16T02:54:17.014Z,11.40
2017-05-16T02:56:44.564Z,11.30
2017-05-16T02:59:12.135Z,11.30
2017-05-16T03:01:39.684Z,11.30
2017-05-16T03:04:07.223Z,11.30
2017-05-16T03:06:35.192Z,11.20
2017-05-16T03:09:02.742Z,11.20
2017-05-16T03:11:30.284Z,11.20
2017-05-16T03:13:58.244Z,11.10
2017-05-16T03:16:26.215Z,11.20
2017-05-16T03:18:53.765Z,11.20
2017-05-16T03:21:21.741Z,11.10
2017-05-16T03:23:49.691Z,11.10
2017-05-16T03:26:17.236Z,11.20
2017-05-16T03:28:44.804Z,11.10
2017-05-16T03:31:12.348Z,11.10
2017-05-16T03:33:39.908Z,11.20
2017-05-16T03:36:07.883Z,11.10
2017-05-16T03:38:35.825Z,11.10
2017-05-16T03:41:03.372Z,11.10
2017-05-16T03:43:31.349Z,11.00
2017-05-16T03:45:58.892Z,11.00
2017-05-16T03:48:26.832Z,10.90
2017-05-16T03:50:54.408Z,10.90
2017-05-16T03:53:21.964Z,10.90
2017-05-16T03:55:49.512Z,11.00
2017-05-16T03:58:17.077Z,11.00
2017-05-16T04:00:44.627Z,11.00
2017-05-16T04:03:12.164Z,11.10
2017-05-16T04:05:39.736Z,11.10
2017-05-16T04:08:07.294Z,11.10
2017-05-16T04:10:34.838Z,11.10
2017-05-16T04:13:02.411Z,11.10
2017-05-16T04:15:30.361Z,11.10
2017-05-16T04:17:57.874Z,11.10
2017-05-16T04:20:25.876Z,11.10
2017-05-16T04:22:53.846Z,11.20
2017-05-16T04:25:21.411Z,11.20
2017-05-16T04:27:49.386Z,11.20
2017-05-16T04:30:16.956Z,11.20
2017-05-16T04:32:44.523Z,11.30
2017-05-16T04:35:12.091Z,11.40
2017-05-16T04:37:40.036Z,11.50
2017-05-16T04:40:08.008Z,11.60
2017-05-16T04:42:35.953Z,11.70
2017-05-16T04:45:03.491Z,11.70
2017-05-16T04:47:31.460Z,11.80
2017-05-16T04:49:59.004Z,11.80
2017-05-16T04:52:26.947Z,12.00
2017-05-16T04:54:54.530Z,12.00
2017-05-16T04:57:22.070Z,12.10
2017-05-16T04:59:49.616Z,12.10
2017-05-16T05:02:17.587Z,12.20
2017-05-16T05:04:45.529Z,12.40
2017-05-16T05:07:13.464Z,12.40
2017-05-16T05:09:41.442Z,12.40
2017-05-16T05:12:08.996Z,12.40
2017-05-16T05:14:37.303Z,12.50
2017-05-16T05:17:05.284Z,12.60
2017-05-16T05:19:32.819Z,12.60
2017-05-16T05:22:00.761Z,12.70
2017-05-16T05:24:28.332Z,12.70
2017-05-16T05:26:56.275Z,12.80
2017-05-16T05:29:24.216Z,12.90
2017-05-16T05:31:51.784Z,12.90
2017-05-16T05:34:19.720Z,13.10
2017-05-16T05:36:47.272Z,13.20
2017-05-16T05:39:15.236Z,13.30
2017-05-16T05:41:43.179Z,13.30
2017-05-16T05:44:11.127Z,13.40
2017-05-16T05:46:39.092Z,13.50
2017-05-16T05:49:07.031Z,13.60
2017-05-16T05:51:34.581Z,13.60
2017-05-16T05:54:02.155Z,13.70
2017-05-16T05:56:29.699Z,13.70
2017-05-16T05:58:57.258Z,13.80
2017-05-16T06:01:25.220Z,13.80
2017-05-16T06:03:52.773Z,13.80
2017-05-16T06:06:20.703Z,14.00
2017-05-16T06:08:48.668Z,14.00
2017-05-16T06:11:16.610Z,14.10
2017-05-16T06:13:44.152Z,14.10
2017-05-16T06:16:11.724Z,14.10
2017-05-16T06:18:39.267Z,14.20
2017-05-16T06:21:06.807Z,14.30
2017-05-16T06:23:34.780Z,14.50
2017-05-16T06:26:02.724Z,14.60
2017-05-16T06:28:30.659Z,14.70
2017-05-16T06:30:58.229Z,14.70
2017-05-16T06:33:25.801Z,14.70
2017-05-16T06:35:53.345Z,14.90
2017-05-16T06:38:21.317Z,15.00
2017-05-16T06:40:49.256Z,15.10
2017-05-16T06:43:16.810Z,15.10
2017-05-16T06:45:44.771Z,15.20
2017-05-16T06:48:12.712Z,15.30
2017-05-16T06:50:40.259Z,15.30
2017-05-16T06:53:08.225Z,15.50
2017-05-16T06:55:35.788Z,15.50
2017-05-16T06:58:03.731Z,15.90
2017-05-16T07:00:31.700Z,15.90
2017-05-16T07:02:59.241Z,15.90
2017-05-16T07:05:27.187Z,16.10
2017-05-16T07:07:54.769Z,16.10
2017-05-16T07:10:22.716Z,16.10
2017-05-16T07:12:50.252Z,16.20
2017-05-16T07:15:18.207Z,16.40
2017-05-16T07:17:46.517Z,16.60
2017-05-16T07:20:14.060Z,16.60
2017-05-16T07:22:41.625Z,16.60
2017-05-16T07:25:09.560Z,16.70
2017-05-16T07:27:37.509Z,16.80
2017-05-16T07:30:05.472Z,16.80
2017-05-16T07:32:33.420Z,16.90
2017-05-16T07:35:01.361Z,17.00
2017-05-16T07:37:29.320Z,17.10
2017-05-16T07:39:56.856Z,17.10
2017-05-16T07:42:24.400Z,17.30
2017-05-16T07:44:51.982Z,17.30
2017-05-16T07:47:19.924Z,17.60
2017-05-16T07:49:47.470Z,17.60
2017-05-16T07:52:15.443Z,17.70
2017-05-16T07:54:43.392Z,17.70
2017-05-16T07:57:11.336Z,17.70
2017-05-16T07:59:38.907Z,17.70
2017-05-16T08:02:06.839Z,18.00
2017-05-16T08:04:34.783Z,18.10
2017-05-16T08:07:02.343Z,18.10
2017-05-16T08:09:30.281Z,18.30
2017-05-16T08:11:58.584Z,18.50
2017-05-16T08:14:26.547Z,18.60
2017-05-16T08:16:54.099Z,18.60
2017-05-16T08:19:22.030Z,18.70
2017-05-16T08:21:49.596Z,18.70
2017-05-16T08:24:17.144Z,18.80
2017-05-16T08:26:45.080Z,19.00
2017-05-16T08:29:12.639Z,19.00
2017-05-16T08:31:40.177Z,19.00
2017-05-16T08:34:07.717Z,19.10
2017-05-16T08:36:35.275Z,19.30
2017-05-16T08:39:03.216Z,19.40
2017-05-16T08:41:30.748Z,19.40
2017-05-16T08:43:58.708Z,19.70
2017-05-16T08:46:26.239Z,19.70
2017-05-16T08:48:54.177Z,19.70
2017-05-16T08:51:21.740Z,19.70
2017-05-16T08:53:49.662Z,19.90
2017-05-16T08:56:17.204Z,19.90
2017-05-16T08:58:44.764Z,20.00
2017-05-16T09:01:12.304Z,20.20
2017-05-16T09:03:39.850Z,20.30
2017-05-16T09:06:07.807Z,20.40
2017-05-16T09:08:35.340Z,20.40
2017-05-16T09:11:02.877Z,20.40
2017-05-16T09:13:30.827Z,20.40
2017-05-16T09:15:58.363Z,20.40
2017-05-16T09:18:26.301Z,20.70
2017-05-16T09:20:54.260Z,21.00
2017-05-16T09:23:22.196Z,21.10
2017-05-16T09:25:50.131Z,21.10
2017-05-16T09:28:18.104Z,21.10
2017-05-16T09:30:45.644Z,21.10
2017-05-16T09:33:13.567Z,21.10
2017-05-16T09:35:41.556Z,21.20
2017-05-16T09:38:09.096Z,21.20
2017-05-16T09:40:36.644Z,21.30
2017-05-16T09:43:04.600Z,21.30
2017-05-16T09:45:32.137Z,21.30
2017-05-16T09:48:00.059Z,21.80
2017-05-16T09:50:28.020Z,21.80
2017-05-16T09:52:55.955Z,21.70
2017-05-16T09:55:23.496Z,21.70
2017-05-16T09:57:51.467Z,21.80
2017-05-16T10:00:19.392Z,21.80
2017-05-16T10:02:47.325Z,21.80
2017-05-16T10:05:15.276Z,21.50
2017-05-16T10:07:43.209Z,21.60
2017-05-16T10:10:10.743Z,21.70
2017-05-16T10:12:38.292Z,21.70
2017-05-16T10:15:06.232Z,21.80
2017-05-16T10:17:34.160Z,22.00
2017-05-16T10:20:01.729Z,21.90
2017-05-16T10:22:29.264Z,22.00
2017-05-16T10:24:56.795Z,22.00
2017-05-16T10:27:24.758Z,22.40
2017-05-16T10:29:52.688Z,22.40
2017-05-16T10:32:20.226Z,22.40
2017-05-16T10:34:48.176Z,22.60
2017-05-16T10:37:16.117Z,22.70
2017-05-16T10:39:44.052Z,22.70
2017-05-16T10:42:12.018Z,22.70
2017-05-16T10:44:39.949Z,22.80
2017-05-16T10:47:07.880Z,22.80
2017-05-16T10:49:35.443Z,22.80
2017-05-16T10:52:03.377Z,22.90
2017-05-16T10:54:31.313Z,23.20
2017-05-16T10:56:58.876Z,23.20
2017-05-16T10:59:26.813Z,22.90
2017-05-16T11:01:54.356Z,23.00
2017-05-16T11:04:21.923Z,22.80
2017-05-16T11:06:49.865Z,22.80
2017-05-16T11:09:17.799Z,22.90
2017-05-16T11:11:45.359Z,22.90
2017-05-16T11:14:12.893Z,22.90
2017-05-16T11:16:40.428Z,23.10
2017-05-16T11:19:08.392Z,23.20
2017-05-16T11:21:35.923Z,23.20
2017-05-16T11:24:03.464Z,22.90
2017-05-16T11:26:31.025Z,22.80
2017-05-16T11:28:58.565Z,22.60
2017-05-16T11:31:26.104Z,22.70
2017-05-16T11:33:54.065Z,23.10
2017-05-16T11:36:21.604Z,23.10
2017-05-16T11:38:49.147Z,23.00
2017-05-16T11:41:17.090Z,22.90
2017-05-16T11:43:45.019Z,23.10
2017-05-16T11:46:12.953Z,23.30
2017-05-16T11:48:40.520Z,23.30
2017-05-16T11:51:08.452Z,23.40
2017-05-16T11:53:35.984Z,23.40
2017-05-16T11:56:03.941Z,23.30
2017-05-16T11:58:31.479Z,23.30
2017-05-16T12:00:59.023Z,23.40
2017-05-16T12:03:26.592Z,23.10
2017-05-16T12:05:54.518Z,23.10
2017-05-16T12:08:22.451Z,23.10
2017-05-16T12:10:50.025Z,23.10
2017-05-16T12:13:17.575Z,22.70
2017-05-16T12:15:45.110Z,22.70
2017-05-16T12:18:12.658Z,22.50
2017-05-16T12:20:40.216Z,22.70
2017-05-16T12:23:08.144Z,23.50
2017-05-16T12:25:36.099Z,23.70
2017-05-16T12:28:04.031Z,23.80
2017-05-16T12:30:31.572Z,23.80
2017-05-16T12:32:59.531Z,24.20
2017-05-16T12:35:27.465Z,24.10
2017-05-16T12:37:55.003Z,24.10
2017-05-16T12:40:22.960Z,23.80
2017-05-16T12:42:50.895Z,23.70
2017-05-16T12:45:18.427Z,23.70
2017-05-16T12:47:46.384Z,23.60
2017-05-16T12:50:13.919Z,23.60
2017-05-16T12:52:41.459Z,23.50
2017-05-16T12:55:09.014Z,23.60
2017-05-16T12:57:36.953Z,23.50
2017-05-16T13:00:04.594Z,23.50
2017-05-16T13:02:32.135Z,23.50
2017-05-16T13:05:00.071Z,23.50
2017-05-16T13:07:28.002Z,23.40
2017-05-16T13:09:55.562Z,23.40
2017-05-16T13:12:23.492Z,23.30
2017-05-16T13:14:51.423Z,23.40
2017-05-16T13:17:19.386Z,23.40
2017-05-16T13:19:46.924Z,23.40
2017-05-16T13:22:14.864Z,23.90
2017-05-16T13:24:42.824Z,23.90
2017-05-16T13:27:10.368Z,23.90
2017-05-16T13:29:38.265Z,23.70
2017-05-16T13:32:06.255Z,23.70
2017-05-16T13:34:34.559Z,23.70
2017-05-16T13:37:02.497Z,23.80
2017-05-16T13:39:30.064Z,23.90
2017-05-16T13:41:57.993Z,24.20
2017-05-16T13:44:25.540Z,24.20
2017-05-16T13:46:53.105Z,24.10
2017-05-16T13:49:20.640Z,24.20
2017-05-16T13:51:48.577Z,24.30
2017-05-16T13:54:17.008Z,24.20
2017-05-16T13:56:44.549Z,24.20
2017-05-16T13:59:12.084Z,24.20
2017-05-16T14:01:39.652Z,24.30
2017-05-16T14:04:07.191Z,24.30
2017-05-16T14:06:35.139Z,24.30
2017-05-16T14:09:03.101Z,24.50
2017-05-16T14:11:31.051Z,24.70
2017-05-16T14:13:58.987Z,24.70
2017-05-16T14:16:26.950Z,24.60
2017-05-16T14:18:54.887Z,24.80
2017-05-16T14:21:22.835Z,24.90
2017-05-16T14:23:50.392Z,24.90
2017-05-16T14:26:17.938Z,25.10
2017-05-16T14:28:45.864Z,25.00
2017-05-16T14:31:13.425Z,25.00
2017-05-16T14:33:40.971Z,25.00
2017-05-16T14:36:08.908Z,24.90
2017-05-16T14:38:36.864Z,25.10
2017-05-16T14:41:04.797Z,25.00
2017-05-16T14:43:32.340Z,25.00
2017-05-16T14:46:00.300Z,25.10
2017-05-16T14:48:28.229Z,25.10
2017-05-16T14:50:55.768Z,25.10
2017-05-16T14:53:23.737Z,25.10
2017-05-16T14:56:15.712Z,25.20
2017-05-16T14:58:43.272Z,25.30
2017-05-16T15:01:10.811Z,25.40
2017-05-16T15:03:38.739Z,25.40
2017-05-16T15:06:06.703Z,25.40
2017-05-16T15:08:34.645Z,25.50
2017-05-16T15:11:02.584Z,25.60
2017-05-16T15:13:30.145Z,25.60
2017-05-16T15:15:57.687Z,25.70
2017-05-16T15:18:25.244Z,25.80
2017-05-16T15:20:53.203Z,25.70
2017-05-16T15:23:21.151Z,25.80
2017-05-16T15:25:48.712Z,25.80
2017-05-16T15:28:16.635Z,26.00
2017-05-16T15:30:44.192Z,26.00
2017-05-16T15:33:11.717Z,26.00
2017-05-16T15:35:39.683Z,26.00
2017-05-16T15:38:07.582Z,25.90
2017-05-16T15:40:35.573Z,26.20
2017-05-16T15:43:03.116Z,26.20
2017-05-16T15:45:31.047Z,26.30
2017-05-16T15:47:58.616Z,26.30
2017-05-16T15:50:26.556Z,25.90
2017-05-16T15:52:54.494Z,25.90
2017-05-16T15:55:22.056Z,25.90
2017-05-16T15:57:49.591Z,26.50
2017-05-16T16:00:17.528Z,28.10
2017-05-16T16:02:45.092Z,28.10
2017-05-16T16:05:12.648Z,29.10
2017-05-16T16:07:40.189Z,28.90
2017-05-16T16:10:08.147Z,29.30
2017-05-16T16:12:36.072Z,28.80
2017-05-16T16:15:03.607Z,28.80
2017-05-16T16:17:31.559Z,28.90
2017-05-16T16:19:59.495Z,28.90
2017-05-16T16:22:27.423Z,28.90
2017-05-16T16:24:55.379Z,28.50
2017-05-16T16:27:22.922Z,28.50
2017-05-16T16:29:50.460Z,28.50
2017-05-16T16:32:18.424Z,28.60
2017-05-16T16:34:46.365Z,29.40
2017-05-16T16:37:13.916Z,29.40
2017-05-16T16:39:41.881Z,28.80
2017-05-16T16:42:09.829Z,28.40
2017-05-16T16:44:37.381Z,28.40
2017-05-16T16:47:04.953Z,28.40
2017-05-16T16:49:32.501Z,28.20
2017-05-16T16:52:00.464Z,28.30
2017-05-16T16:54:28.029Z,28.30
2017-05-16T16:56:55.576Z,28.40
2017-05-16T16:59:23.117Z,28.30
2017-05-16T17:01:50.693Z,28.10
2017-05-16T17:04:18.246Z,27.30
2017-05-16T17:06:46.180Z,25.80
2017-05-16T17:09:13.748Z,25.80
2017-05-16T17:11:41.693Z,24.80
2017-05-16T17:14:09.237Z,24.80
2017-05-16T17:16:36.832Z,24.60
2017-05-16T17:19:04.776Z,24.10
2017-05-16T17:21:32.739Z,24.00
2017-05-16T17:24:00.268Z,24.00
2017-05-16T17:26:27.867Z,23.90
2017-05-16T17:28:55.877Z,23.60
2017-05-16T17:31:23.834Z,23.40
2017-05-16T17:33:51.403Z,23.50
2017-05-16T17:36:19.100Z,23.30
2017-05-16T17:38:47.177Z,23.10
2017-05-16T17:41:14.749Z,23.10
2017-05-16T17:43:42.355Z,23.10
2017-05-16T17:46:10.611Z,23.30
2017-05-16T17:48:38.894Z,23.30
2017-05-16T17:51:07.105Z,23.30
2017-05-16T17:53:35.367Z,23.20
2017-05-16T17:56:03.219Z,23.20
2017-05-16T17:58:31.590Z,22.80
2017-05-16T18:00:59.693Z,22.80
2017-05-16T18:03:27.590Z,22.70
2017-05-16T18:05:55.967Z,22.40
2017-05-16T18:08:24.097Z,22.40
2017-05-16T18:10:52.543Z,22.10
2017-05-16T18:13:20.573Z,22.10
2017-05-16T18:15:48.819Z,22.00
2017-05-16T18:18:17.092Z,22.10
2017-05-16T18:20:45.603Z,21.90
2017-05-16T18:23:14.493Z,21.80
2017-05-16T18:25:43.292Z,21.70
2017-05-16T18:28:12.313Z,21.70
2017-05-16T18:30:41.257Z,21.60
2017-05-16T18:33:09.819Z,21.60
2017-05-16T18:35:38.379Z,21.60
2017-05-16T18:38:07.427Z,21.60
2017-05-16T18:40:35.995Z,21.60
2017-05-16T18:43:04.578Z,21.50
2017-05-16T18:45:33.362Z,21.30
2017-05-16T18:48:01.947Z,21.20
2017-05-16T18:50:30.906Z,20.90
2017-05-16T18:52:59.946Z,20.90
2017-05-16T18:55:29.261Z,20.70
2017-05-16T18:57:58.550Z,20.60
2017-05-16T19:00:27.800Z,20.60
2017-05-16T19:02:56.674Z,20.60
2017-05-16T19:05:26.005Z,20.40
2017-05-16T19:07:55.276Z,20.30
2017-05-16T19:10:24.542Z,20.30
2017-05-16T19:12:53.848Z,20.30
2017-05-16T19:15:22.748Z,20.30
2017-05-16T19:17:51.794Z,20.20
2017-05-16T19:20:20.376Z,20.20
2017-05-16T19:22:49.936Z,20.10
2017-05-16T19:25:19.248Z,20.10
2017-05-16T19:27:47.824Z,20.10
2017-05-16T19:30:16.732Z,20.10
2017-05-16T19:32:45.375Z,20.10
2017-05-16T19:35:14.344Z,20.10
2017-05-16T19:37:43.343Z,20.10
2017-05-16T19:40:11.921Z,20.20
2017-05-16T19:42:40.783Z,20.20
2017-05-16T19:45:09.691Z,20.20
2017-05-16T19:47:38.285Z,20.10
2017-05-16T19:50:06.984Z,20.00
2017-05-16T19:52:35.535Z,19.80
2017-05-16T19:55:04.535Z,19.60
2017-05-16T19:57:33.456Z,19.60
2017-05-16T20:00:02.697Z,19.40
2017-05-16T20:02:31.646Z,19.30
2017-05-16T20:05:00.680Z,19.40
2017-05-16T20:07:29.642Z,19.40
2017-05-16T20:09:58.832Z,19.30
2017-05-16T20:12:27.724Z,19.30
2017-05-16T20:14:56.275Z,19.20
2017-05-16T20:17:25.234Z,19.20
2017-05-16T20:19:53.936Z,19.20
2017-05-16T20:22:22.911Z,19.30
2017-05-16T20:24:51.978Z,19.20
2017-05-16T20:27:21.064Z,19.20
2017-05-16T20:29:49.614Z,19.20
2017-05-16T20:32:18.188Z,19.30
2017-05-16T20:34:46.869Z,19.30
2017-05-16T20:37:15.809Z,19.20
2017-05-16T20:39:44.760Z,19.20
2017-05-16T20:42:13.403Z,19.20
2017-05-16T20:44:41.931Z,19.10
2017-05-16T20:47:10.890Z,19.00
2017-05-16T20:49:39.924Z,18.80
2017-05-16T20:52:08.440Z,18.80
2017-05-16T20:54:37.526Z,18.60
2017-05-16T20:57:06.028Z,18.60
2017-05-16T20:59:34.941Z,18.40
2017-05-16T21:02:03.423Z,18.40
2017-05-16T21:04:31.555Z,18.30
2017-05-16T21:06:59.594Z,18.30
2017-05-16T21:09:27.410Z,18.30
2017-05-16T21:11:55.492Z,18.10
2017-05-16T21:14:23.482Z,18.10
2017-05-16T21:16:51.887Z,18.00
2017-05-16T21:19:19.946Z,18.00
2017-05-16T21:21:47.892Z,17.90
2017-05-16T21:24:15.864Z,17.80
2017-05-16T21:26:43.871Z,17.70
2017-05-16T21:29:11.392Z,17.80
2017-05-16T21:31:39.361Z,17.70
2017-05-16T21:34:07.298Z,17.70
2017-05-16T21:36:35.235Z,17.60
2017-05-16T21:39:02.803Z,17.70
2017-05-16T21:41:30.768Z,17.60
2017-05-16T21:43:58.321Z,17.60
2017-05-16T21:46:25.860Z,17.50
2017-05-16T21:48:53.429Z,17.50
2017-05-16T21:51:20.976Z,17.50
2017-05-16T21:53:48.919Z,17.40
2017-05-16T21:56:16.887Z,17.30
2017-05-16T21:58:44.839Z,17.40
2017-05-16T22:01:12.785Z,17.30
2017-05-16T22:03:40.352Z,17.30
2017-05-16T22:06:07.891Z,17.20
2017-05-16T22:08:35.455Z,17.20
2017-05-16T22:11:03.024Z,17.10
2017-05-16T22:13:30.567Z,17.10
2017-05-16T22:15:58.117Z,17.10
2017-05-16T22:18:26.100Z,17.00
2017-05-16T22:20:54.043Z,17.00
2017-05-16T22:23:22.000Z,17.10
2017-05-16T22:25:49.922Z,17.00
2017-05-16T22:28:17.516Z,17.10
2017-05-16T22:30:45.452Z,17.10
2017-05-16T22:33:13.021Z,17.10
2017-05-16T22:35:40.573Z,17.00
2017-05-16T22:38:08.553Z,16.80
2017-05-16T22:40:36.112Z,16.80
2017-05-16T22:43:03.651Z,16.80
2017-05-16T22:45:31.616Z,16.60
2017-05-16T22:47:59.189Z,16.70
2017-05-16T22:50:26.748Z,16.50
2017-05-16T22:52:54.712Z,16.30
2017-05-16T22:55:22.665Z,16.30
2017-05-16T22:57:50.209Z,16.30
2017-05-16T23:00:18.168Z,16.20
2017-05-16T23:02:46.109Z,16.20
2017-05-16T23:05:14.068Z,16.20
2017-05-16T23:07:42.035Z,16.20
2017-05-16T23:10:09.579Z,16.20
2017-05-16T23:12:37.153Z,16.30
2017-05-16T23:15:05.132Z,16.30
2017-05-16T23:17:33.084Z,16.20
2017-05-16T23:20:01.020Z,16.10
2017-05-16T23:22:28.995Z,16.10
2017-05-16T23:24:56.968Z,16.00
2017-05-16T23:27:24.912Z,16.10
2017-05-16T23:29:52.456Z,16.10
2017-05-16T23:32:20.019Z,16.00
2017-05-16T23:34:47.567Z,16.00
2017-05-16T23:37:15.144Z,16.10
2017-05-16T23:39:43.353Z,16.00
2017-05-16T23:42:10.912Z,16.00
2017-05-16T23:44:38.875Z,15.90
2017-05-16T23:47:06.816Z,15.90
2017-05-16T23:49:34.797Z,15.80
2017-05-16T23:52:02.349Z,15.90
2017-05-16T23:54:30.304Z,15.80
2017-05-16T23:56:57.884Z,15.80
2017-05-16T23:59:25.429Z,15.80
